Socotra, Yemen

5:49 PM AST on September 19, 2014 (GMT +0300)
Moori | Change Station
CLOSE
Current Station
Airport
Location: Socotra,
Elevation: 148 ft
Nearby Weather Stations

Elev 148 ft 12.63 °N, 53.91 °E | Updated 49 minutes ago

Scattered Clouds
Scattered Clouds
86 °F
Feels Like 95 °F
N
31
Wind Variable Wind from SSW

Today
High -- | Low -- °F
--% Chance of Precip.
Yesterday
High -- | Low -- °F
Precip. -- in
5:13 AM 5:22 PM
Waning Crescent, 19% visible
Pressure 29.71 in
Visibility 6.2 miles
Clouds Scattered Clouds 1800 ft
Heat Index 95 °F
Dew Point 75 °F
Humidity 70%
Rainfall 0.00 in
Snow Depth Not available.
UV 0 out of 12
Pollen Not available.
Air Quality Not available.
Flu Activity Not available.
METAR OYSQ 191400Z 21027KT 9999 SCT018 30/24 Q1006

More Conditions Fewer Conditions

Pressure 29.71 in
Visibility 6.2 miles
Clouds Scattered Clouds 1800 ft
Heat Index 95 °F
Dew Point 75 °F
Humidity 70%
Rainfall 0.00 in
Snow Depth Not available.
UV 0 out of 12
Pollen Not available.
Air Quality Not available.
Flu Activity Not available.
METAR OYSQ 191400Z 21027KT 9999 SCT018 30/24 Q1006

More Conditions Fewer Conditions

10-Day Weather Forecast

Almanac

Astronomy

Sep. 19, 2014 Rise Set
Actual Time 5:13 AM AST 5:22 PM AST
Civil Twilight 4:52 AM AST 5:44 PM AST
Nautical Twilight 4:27 AM AST 6:08 PM AST
Astronomical Twilight 4:03 AM AST 6:33 PM AST
Moon 1:13 AM AST 2:04 PM AST
Length of Visible Light 12h 51m
Length of Day
12h 09m
Tomorrow will be 0m 42s shorter.
Waning Crescent, 19% of the Moon is Illuminated
Today
Waning Crescent
Sep 24
New
Oct 1
First Quarter
Oct 8
Full
Oct 15
Last Quarter

Today's Extremes

Country Highs Country Lows

Community

WunderPhotos

Upload Photos

1,754,630 photos uploaded!

WunderBlogs® & News

Nearby

Snow Depth

Not available.

Earthquake Activity

City Distance Mag. Time & Date
No recent earthquake activity has been reported nearby.
Minimum magnitude displayed is 2.5.

Coastal Water Temperatures

Place Temperature
No Stations Reporting

Nearby Weather Stations